Time;durP1;ratioP1;P1;durP2;ratioP2;P2;SDS_P1;SDS_P2;PMS_P1;PMS_P2;Temp;Humidity;BMP_temperature;BMP_pressure;BME280_temperature;BME280_humidity;BME280_pressure;Samples;Min_cycle;Max_cycle;Signal;HPM_P1;HPM_P2
2022/03/14 00:01:06;;;;;;;1.75;1.40;;;;;;;16.11;42.68;101560.00;5054759;28;20111;-67
2022/03/14 00:06:29;;;;;;;2.30;1.80;;;;;;;16.01;43.05;101565.31;5036719;28;20041;-67
2022/03/14 00:08:57;;;;;;;1.70;1.60;;;;;;;15.93;43.32;101565.09;5054829;28;20095;-68
2022/03/14 00:11:26;;;;;;;2.75;1.60;;;;;;;15.85;43.26;101564.84;5054286;28;20079;-68
2022/03/14 00:13:55;;;;;;;2.13;1.77;;;;;;;15.80;43.55;101575.22;5036881;28;20037;-67
2022/03/14 00:16:30;;;;;;;2.83;2.00;;;;;;;15.78;43.85;101577.19;5054377;28;20075;-68
2022/03/14 00:18:58;;;;;;;2.05;1.83;;;;;;;15.72;43.79;101578.53;5054803;28;20033;-67
2022/03/14 00:21:26;;;;;;;2.28;1.90;;;;;;;15.67;44.00;101583.47;5054536;28;20037;-68
2022/03/14 00:23:57;;;;;;;2.60;1.85;;;;;;;15.65;44.40;101588.16;5054521;28;20533;-68
2022/03/14 00:26:26;;;;;;;2.15;1.95;;;;;;;15.63;44.48;101582.00;5046584;28;20120;-68
2022/03/14 00:28:53;;;;;;;3.40;2.00;;;;;;;15.62;44.59;101584.81;5054423;28;20055;-68
2022/03/14 00:31:21;;;;;;;3.58;2.45;;;;;;;15.56;44.88;101586.09;5054312;28;20044;-68
2022/03/14 00:33:53;;;;;;;2.67;2.25;;;;;;;15.51;45.04;101581.06;5053474;28;20044;-68
2022/03/14 00:36:20;;;;;;;2.30;1.90;;;;;;;15.49;45.24;101582.16;5035688;28;20071;-68
2022/03/14 00:38:47;;;;;;;3.17;2.28;;;;;;;15.44;45.30;101579.84;5053634;28;20051;-68
2022/03/14 00:41:15;;;;;;;2.25;1.95;;;;;;;15.41;45.35;101593.63;5053450;28;20051;-68
2022/03/14 00:43:46;;;;;;;2.70;2.22;;;;;;;15.37;45.51;101599.38;5053736;28;20068;-68
2022/03/14 00:46:17;;;;;;;3.22;2.22;;;;;;;15.36;45.61;101598.53;5053489;28;20552;-67
2022/03/14 00:48:45;;;;;;;2.85;2.30;;;;;;;15.36;45.88;101606.66;5053147;28;20094;-68
2022/03/14 00:51:12;;;;;;;2.90;2.42;;;;;;;15.35;45.99;101607.63;5053020;28;20509;-68
2022/03/14 00:53:48;;;;;;;3.88;2.53;;;;;;;15.34;46.14;101605.03;5052538;28;20076;-68
2022/03/14 00:56:19;;;;;;;3.28;2.40;;;;;;;15.34;45.77;101610.47;5053216;28;20373;-68
2022/03/14 00:58:46;;;;;;;2.50;2.30;;;;;;;15.35;46.11;101606.78;5053268;28;20095;-69
2022/03/14 01:01:13;;;;;;;2.78;2.22;;;;;;;15.38;46.02;101617.34;5053105;28;20040;-68
2022/03/14 01:06:13;;;;;;;3.17;2.60;;;;;;;15.36;46.02;101616.63;5052971;28;20055;-68
2022/03/14 01:08:40;;;;;;;3.78;2.33;;;;;;;15.33;46.15;101627.69;5052865;28;20059;-69
2022/03/14 01:11:08;;;;;;;2.72;2.53;;;;;;;15.29;46.35;101628.91;5052349;28;20064;-68
2022/03/14 01:13:34;;;;;;;3.00;2.47;;;;;;;15.26;46.38;101628.16;5052757;28;20037;-67
2022/03/14 01:16:08;;;;;;;3.80;2.47;;;;;;;15.25;46.46;101637.25;5014013;28;20169;-68
2022/03/14 01:18:35;;;;;;;3.92;2.60;;;;;;;15.23;46.41;101639.22;5033738;28;20045;-68
2022/03/14 01:21:02;;;;;;;3.33;2.83;;;;;;;15.23;46.42;101635.66;5044585;28;20029;-68
2022/03/14 01:23:31;;;;;;;3.88;2.42;;;;;;;15.20;46.53;101642.16;5053808;28;20141;-67
2022/03/14 01:26:03;;;;;;;2.95;2.38;;;;;;;15.19;46.73;101637.75;5053367;28;20045;-68
2022/03/14 01:28:29;;;;;;;4.00;2.70;;;;;;;15.17;46.99;101639.72;5035695;28;20088;-68
2022/03/14 01:30:58;;;;;;;2.63;2.35;;;;;;;15.14;46.99;101641.78;5053216;28;20509;-68
2022/03/14 01:33:24;;;;;;;2.78;2.42;;;;;;;15.13;46.78;101645.47;5053202;28;20065;-68
2022/03/14 01:35:52;;;;;;;4.30;2.60;;;;;;;15.12;46.89;101654.56;5053339;28;20131;-68
2022/03/14 01:38:19;;;;;;;3.20;2.55;;;;;;;15.09;47.04;101650.25;5052870;28;20076;-67
2022/03/14 01:40:45;;;;;;;3.63;2.60;;;;;;;15.08;47.12;101653.94;5053069;28;20128;-68
2022/03/14 01:43:12;;;;;;;3.13;2.72;;;;;;;15.08;47.08;101651.25;5052892;28;20044;-67
2022/03/14 01:45:46;;;;;;;2.80;2.50;;;;;;;15.08;47.38;101653.09;5053148;28;20470;-68
2022/03/14 01:48:13;;;;;;;3.13;2.70;;;;;;;15.10;47.21;101654.69;5052685;28;20407;-67
2022/03/14 01:50:39;;;;;;;4.05;2.80;;;;;;;15.09;47.27;101661.09;5034800;28;20499;-68
2022/03/14 01:53:06;;;;;;;3.13;2.38;;;;;;;15.08;47.37;101658.50;5052717;28;20056;-67
2022/03/14 01:55:34;;;;;;;3.83;2.72;;;;;;;15.07;47.53;101660.34;5035002;28;20037;-68
2022/03/14 01:58:03;;;;;;;3.00;2.70;;;;;;;15.08;47.39;101658.50;5034949;28;20052;-67
2022/03/14 02:00:30;;;;;;;3.47;2.70;;;;;;;15.06;47.57;101650.50;5052116;28;20136;-68
2022/03/14 02:02:57;;;;;;;3.65;2.75;;;;;;;15.03;47.40;101656.16;5052174;28;20060;-68
2022/03/14 02:05:28;;;;;;;3.40;2.63;;;;;;;14.99;47.56;101657.34;5034587;28;20045;-67
2022/03/14 02:07:57;;;;;;;3.53;2.80;;;;;;;14.96;47.52;101657.59;5051693;28;20131;-68
2022/03/14 02:10:23;;;;;;;3.80;3.05;;;;;;;14.93;47.93;101656.00;5051770;28;20076;-68
2022/03/14 02:12:50;;;;;;;3.63;2.35;;;;;;;14.92;47.90;101662.38;5052101;28;20106;-67
2022/03/14 02:15:20;;;;;;;4.10;2.88;;;;;;;14.92;47.83;101669.63;5052421;28;20045;-68
2022/03/14 02:17:48;;;;;;;3.13;2.60;;;;;;;14.92;47.75;101664.22;5052348;28;20045;-68
2022/03/14 02:20:15;;;;;;;4.60;2.65;;;;;;;14.91;47.63;101662.50;5051963;28;20045;-67
2022/03/14 02:22:41;;;;;;;4.32;2.63;;;;;;;14.88;47.77;101666.28;5052164;28;20041;-67
2022/03/14 02:25:12;;;;;;;4.20;3.05;;;;;;;14.86;47.92;101662.84;5051978;28;20372;-67
2022/03/14 02:27:39;;;;;;;3.38;2.63;;;;;;;14.85;47.85;101671.91;5051913;28;20052;-67
2022/03/14 02:30:06;;;;;;;4.28;2.88;;;;;;;14.84;48.08;101674.72;5051435;28;20049;-68
2022/03/14 02:32:41;;;;;;;3.38;2.75;;;;;;;14.81;48.30;101685.78;5051954;28;20124;-67
2022/03/14 02:35:12;;;;;;;4.07;2.55;;;;;;;14.79;48.15;101679.63;5051910;28;20430;-68
2022/03/14 02:37:39;;;;;;;3.30;2.60;;;;;;;14.77;48.26;101684.28;5051667;28;20079;-68
2022/03/14 02:40:08;;;;;;;3.22;2.78;;;;;;;14.78;48.44;101688.72;5051738;28;20091;-68
2022/03/14 02:42:34;;;;;;;3.85;2.72;;;;;;;14.77;48.05;101687.84;5052228;28;20123;-68
2022/03/14 02:45:04;;;;;;;4.78;2.90;;;;;;;14.79;48.37;101695.84;5052324;28;20449;-68
2022/03/14 02:47:31;;;;;;;3.88;3.03;;;;;;;14.81;48.58;101685.78;5017501;28;20083;-67
2022/03/14 02:49:59;;;;;;;4.00;2.80;;;;;;;14.84;48.41;101685.53;5051865;28;20033;-67
2022/03/14 02:52:26;;;;;;;4.50;2.70;;;;;;;14.85;48.66;101690.84;5051719;28;20037;-67
2022/03/14 02:54:58;;;;;;;3.42;2.83;;;;;;;14.84;48.67;101696.38;5051682;28;20066;-67
2022/03/14 02:57:25;;;;;;;2.88;2.38;;;;;;;14.82;48.57;101696.47;5051821;28;20091;-68
2022/03/14 02:59:51;;;;;;;4.15;2.65;;;;;;;14.82;48.73;101693.78;5051562;28;20394;-68
2022/03/14 03:02:18;;;;;;;2.90;2.60;;;;;;;14.81;48.59;101688.47;5051860;28;20056;-67
2022/03/14 03:04:50;;;;;;;3.00;2.60;;;;;;;14.80;48.58;101687.63;5051976;28;20048;-67
2022/03/14 03:07:19;;;;;;;3.33;2.55;;;;;;;14.81;48.85;101702.88;5051480;28;20064;-67
2022/03/14 03:09:46;;;;;;;3.10;2.50;;;;;;;14.83;48.83;101708.16;5051763;28;20037;-68
2022/03/14 03:12:13;;;;;;;3.78;2.80;;;;;;;14.87;48.80;101706.97;5051968;28;20124;-67
2022/03/14 03:14:43;;;;;;;3.35;2.65;;;;;;;14.88;48.68;101723.09;5051430;28;20495;-67
2022/03/14 03:17:10;;;;;;;2.72;2.45;;;;;;;14.89;48.65;101722.13;5054505;28;20167;-67
2022/03/14 03:19:36;;;;;;;3.03;2.70;;;;;;;14.89;48.60;101719.41;5054958;28;20037;-67
2022/03/14 03:22:03;;;;;;;3.45;2.78;;;;;;;14.89;48.60;101730.22;5037267;28;20487;-67
2022/03/14 03:24:30;;;;;;;4.22;3.20;;;;;;;14.87;48.54;101740.31;5054640;28;20132;-67
2022/03/14 03:26:57;;;;;;;3.42;2.72;;;;;;;14.87;48.78;101744.84;5037234;28;20458;-67
2022/03/14 03:29:25;;;;;;;4.15;3.13;;;;;;;14.84;48.63;101751.31;5037177;28;20479;-67
2022/03/14 03:31:51;;;;;;;2.97;2.63;;;;;;;14.81;48.77;101748.84;5054987;28;20045;-68
2022/03/14 03:34:23;;;;;;;3.50;2.80;;;;;;;14.81;49.10;101756.09;5055182;28;20407;-68
2022/03/14 03:36:49;;;;;;;3.60;2.80;;;;;;;14.80;48.99;101763.34;5054696;28;20111;-68
2022/03/14 03:39:16;;;;;;;3.75;2.60;;;;;;;14.81;48.86;101778.59;5054586;28;20044;-68
2022/03/14 03:41:43;;;;;;;3.72;2.70;;;;;;;14.83;48.77;101770.34;5054620;28;20037;-67
2022/03/14 03:44:13;;;;;;;2.80;2.50;;;;;;;14.85;48.91;101777.38;5054765;28;20487;-68
2022/03/14 03:46:40;;;;;;;2.72;2.35;;;;;;;14.89;49.16;101786.16;5054921;28;20045;-68
2022/03/14 03:49:06;;;;;;;3.35;2.67;;;;;;;14.91;48.87;101798.59;5054190;28;20048;-68
2022/03/14 03:51:34;;;;;;;3.08;2.60;;;;;;;14.94;48.99;101805.63;5054488;28;20037;-67
2022/03/14 03:54:25;;;;;;;3.65;2.60;;;;;;;14.94;49.20;101805.63;5054519;28;20064;-67
2022/03/14 03:56:52;;;;;;;3.83;2.90;;;;;;;14.99;49.07;101810.69;5054512;28;20064;-67
2022/03/14 03:59:19;;;;;;;4.40;3.45;;;;;;;15.00;48.94;101817.81;5054120;28;20514;-68
2022/03/14 04:01:46;;;;;;;3.35;3.00;;;;;;;15.00;48.85;101815.13;5053944;28;20513;-67
2022/03/14 04:04:17;;;;;;;4.15;3.15;;;;;;;15.00;49.14;101824.09;5054420;28;20047;-67
2022/03/14 04:06:44;;;;;;;3.45;3.15;;;;;;;14.99;48.80;101825.06;5035541;28;20495;-67
2022/03/14 04:09:11;;;;;;;3.58;3.00;;;;;;;14.99;49.03;101832.31;5053929;28;20098;-68
2022/03/14 04:11:41;;;;;;;3.03;2.72;;;;;;;14.96;49.16;101833.41;5053736;28;20486;-69
2022/03/14 04:14:10;;;;;;;4.38;3.00;;;;;;;14.93;48.90;101842.63;5036351;28;20044;-67
2022/03/14 04:16:38;;;;;;;3.85;3.42;;;;;;;14.89;48.88;101846.53;5053948;28;20546;-67
2022/03/14 04:19:04;;;;;;;2.80;2.50;;;;;;;14.87;49.02;101856.59;5053787;28;20045;-68
2022/03/14 04:21:35;;;;;;;3.22;2.92;;;;;;;14.85;48.92;101857.66;5035747;28;20111;-67
2022/03/14 04:24:06;;;;;;;3.35;2.85;;;;;;;14.86;49.23;101862.97;5036038;28;20048;-67
2022/03/14 04:26:33;;;;;;;3.72;3.03;;;;;;;14.83;49.03;101857.75;5035704;28;20045;-68
2022/03/14 04:29:00;;;;;;;3.70;2.78;;;;;;;14.80;49.12;101866.09;5054128;28;20127;-68
2022/03/14 04:31:27;;;;;;;4.13;3.47;;;;;;;14.80;49.16;101865.22;5053616;28;20487;-67
2022/03/14 04:33:57;;;;;;;3.08;2.75;;;;;;;14.80;49.21;101878.75;5035891;28;20124;-68
2022/03/14 04:36:23;;;;;;;3.25;2.95;;;;;;;14.78;49.13;101869.88;5053130;28;20110;-68
2022/03/14 04:38:50;;;;;;;3.03;2.70;;;;;;;14.73;49.25;101878.34;5053182;28;20041;-68
2022/03/14 04:41:25;;;;;;;4.60;3.20;;;;;;;14.65;49.16;101877.16;5053307;28;20037;-68
2022/03/14 04:43:56;;;;;;;3.58;3.15;;;;;;;14.61;49.44;101892.72;5053555;28;20048;-67
2022/03/14 04:46:23;;;;;;;3.78;3.38;;;;;;;14.57;49.28;101897.50;5053199;28;20045;-68
2022/03/14 04:48:50;;;;;;;3.65;3.00;;;;;;;14.55;49.63;101895.88;5035224;28;20140;-68
2022/03/14 04:51:17;;;;;;;3.90;3.50;;;;;;;14.51;49.50;101900.63;5053200;28;20045;-67
2022/03/14 04:53:48;;;;;;;4.93;3.45;;;;;;;14.48;49.32;101906.25;5053191;28;20033;-68
2022/03/14 04:56:15;;;;;;;4.85;3.20;;;;;;;14.49;49.66;101918.81;5035235;28;20098;-67
2022/03/14 04:58:41;;;;;;;3.92;3.53;;;;;;;14.50;49.83;101919.66;5052860;28;20099;-67
2022/03/14 05:01:08;;;;;;;5.15;3.55;;;;;;;14.51;49.80;101919.56;5052930;28;20505;-68
2022/03/14 05:03:35;;;;;;;4.90;3.53;;;;;;;14.50;49.48;101925.06;5052784;28;20037;-67
2022/03/14 05:06:22;;;;;;;4.35;3.50;;;;;;;14.49;49.62;101935.03;5052688;28;20041;-67
2022/03/14 05:08:49;;;;;;;4.20;3.80;;;;;;;14.48;49.66;101936.00;5052573;28;20077;-67
2022/03/14 05:11:16;;;;;;;4.35;3.95;;;;;;;14.46;49.64;101937.06;5052555;28;20037;-67
2022/03/14 05:13:46;;;;;;;4.35;3.95;;;;;;;14.42;50.17;101941.81;5052880;28;20109;-68
2022/03/14 05:16:12;;;;;;;4.47;3.95;;;;;;;14.41;49.86;101950.88;5052355;28;20080;-67
2022/03/14 05:18:39;;;;;;;4.95;4.15;;;;;;;14.43;49.96;101948.97;5034571;28;20041;-67
2022/03/14 05:21:05;;;;;;;4.88;4.40;;;;;;;14.42;50.14;101959.84;5052392;28;20053;-68
2022/03/14 05:23:36;;;;;;;4.90;4.32;;;;;;;14.40;50.08;101962.66;5035512;28;20086;-68
2022/03/14 05:26:10;;;;;;;6.28;4.65;;;;;;;14.39;50.12;101970.88;5034848;28;20127;-68
2022/03/14 05:28:37;;;;;;;6.32;4.50;;;;;;;14.34;50.20;101973.91;5052074;28;20048;-67
2022/03/14 05:31:03;;;;;;;5.45;4.68;;;;;;;14.33;50.27;101974.88;5034763;28;20121;-68
2022/03/14 05:33:30;;;;;;;6.75;5.07;;;;;;;14.32;50.54;101984.81;5052402;28;20049;-68
2022/03/14 05:35:59;;;;;;;6.47;5.47;;;;;;;14.32;50.36;101992.91;5052339;28;20047;-67
2022/03/14 05:38:26;;;;;;;7.88;5.40;;;;;;;14.31;50.58;101990.31;5051591;28;20055;-67
2022/03/14 05:40:53;;;;;;;5.95;5.35;;;;;;;14.29;50.83;102001.22;5051793;28;20053;-67
2022/03/14 05:43:21;;;;;;;10.98;6.47;;;;;;;14.29;50.64;102001.22;5052375;28;20107;-67
2022/03/14 05:45:49;;;;;;;8.57;5.95;;;;;;;14.27;50.85;102003.16;5052816;28;20390;-67
2022/03/14 05:48:16;;;;;;;8.68;5.72;;;;;;;14.25;50.83;102007.81;5052212;28;20055;-67
2022/03/14 05:50:42;;;;;;;7.03;5.93;;;;;;;14.25;50.98;102012.34;5052355;28;20455;-67
2022/03/14 05:53:11;;;;;;;7.95;5.80;;;;;;;14.24;50.83;102018.72;5052220;28;20522;-68
2022/03/14 05:55:37;;;;;;;7.95;5.70;;;;;;;14.23;50.77;102020.56;5051660;28;20407;-67
2022/03/14 05:58:06;;;;;;;7.95;5.60;;;;;;;14.23;50.77;102017.00;5034315;28;20487;-68
2022/03/14 06:00:36;;;;;;;7.93;5.90;;;;;;;14.22;50.76;102029.63;5044583;28;20124;-67
2022/03/14 06:03:03;;;;;;;7.20;5.90;;;;;;;14.21;50.80;102027.91;5052022;28;20482;-67
2022/03/14 06:05:33;;;;;;;7.50;5.75;;;;;;;14.22;51.10;102031.47;5052198;28;20033;-67
2022/03/14 06:07:59;;;;;;;9.02;6.15;;;;;;;14.22;50.89;102037.75;5051858;28;20080;-67
2022/03/14 06:10:27;;;;;;;9.93;6.60;;;;;;;14.20;50.86;102036.13;5052180;28;20115;-67
2022/03/14 06:12:53;;;;;;;7.00;6.10;;;;;;;14.16;50.74;102038.16;5051177;28;20045;-68
2022/03/14 06:15:21;;;;;;;10.25;6.47;;;;;;;14.13;50.95;102037.50;5051794;28;20291;-68
2022/03/14 06:17:47;;;;;;;9.15;6.95;;;;;;;14.11;50.91;102051.06;5033766;28;20049;-67
2022/03/14 06:20:15;;;;;;;7.95;6.93;;;;;;;14.11;51.02;102044.81;5033414;28;20043;-67
2022/03/14 06:22:46;;;;;;;9.25;6.60;;;;;;;14.12;51.17;102058.25;5050018;28;20064;-67
2022/03/14 06:25:38;;;;;;;7.75;6.95;;;;;;;14.12;51.29;102062.75;5051415;28;20514;-68
2022/03/14 06:28:05;;;;;;;8.63;7.05;;;;;;;14.14;51.19;102061.72;5050779;28;20083;-68
2022/03/14 06:30:34;;;;;;;11.77;7.78;;;;;;;14.13;51.32;102073.50;5051028;28;20495;-68
2022/03/14 06:33:01;;;;;;;9.90;8.27;;;;;;;14.12;51.00;102077.16;5051542;28;20048;-68
2022/03/14 06:35:29;;;;;;;9.98;8.18;;;;;;;14.11;51.28;102083.50;5051565;28;20402;-68
2022/03/14 06:37:55;;;;;;;10.13;7.82;;;;;;;14.11;51.29;102082.63;5051079;28;20044;-67
2022/03/14 06:40:23;;;;;;;9.82;8.73;;;;;;;14.13;51.25;102089.69;5043205;28;20045;-67
2022/03/14 06:42:50;;;;;;;13.55;9.07;;;;;;;14.14;51.30;102090.56;5051083;28;20041;-68
2022/03/14 06:45:23;;;;;;;13.73;9.45;;;;;;;14.17;51.46;102093.06;5051308;28;20124;-67
2022/03/14 06:47:51;;;;;;;11.70;8.27;;;;;;;14.18;51.23;102094.78;5051145;28;20049;-67
2022/03/14 06:50:18;;;;;;;11.07;9.68;;;;;;;14.18;51.19;102089.38;5053359;28;20041;-67
2022/03/14 06:52:45;;;;;;;14.40;9.95;;;;;;;14.18;51.14;102105.59;5055431;28;20388;-67
2022/03/14 06:55:13;;;;;;;14.23;10.50;;;;;;;14.17;51.20;102098.47;5055381;28;20112;-67
2022/03/14 06:57:39;;;;;;;12.40;9.80;;;;;;;14.16;51.55;102102.13;5054699;28;20102;-68
2022/03/14 07:00:07;;;;;;;14.77;10.25;;;;;;;14.16;51.35;102110.25;5054799;28;20407;-67
2022/03/14 07:02:38;;;;;;;11.98;10.10;;;;;;;14.16;51.41;102116.50;5055057;28;20051;-68
2022/03/14 07:05:10;;;;;;;16.05;10.50;;;;;;;14.18;51.24;102116.41;5055175;28;20083;-68
2022/03/14 07:07:37;;;;;;;13.48;11.00;;;;;;;14.19;51.42;102120.84;5036840;28;20067;-68
2022/03/14 07:10:04;;;;;;;14.95;10.68;;;;;;;14.19;51.49;102123.53;5036553;28;20041;-70
2022/03/14 07:12:36;;;;;;;15.05;10.73;;;;;;;14.20;51.56;102123.44;5055093;28;20044;-68
2022/03/14 07:15:05;;;;;;;12.52;9.90;;;;;;;14.20;51.63;102120.75;5036841;28;20049;-67
2022/03/14 07:17:32;;;;;;;14.68;10.30;;;;;;;14.19;51.48;102121.72;5020653;28;20061;-67
2022/03/14 07:19:59;;;;;;;15.00;10.43;;;;;;;14.20;51.70;102128.84;5036254;28;20051;-67
2022/03/14 07:22:28;;;;;;;14.80;11.20;;;;;;;14.21;51.74;102132.41;5036649;28;20122;-67
2022/03/14 07:24:55;;;;;;;16.25;11.32;;;;;;;14.19;51.77;102129.81;5054355;28;20076;-67
2022/03/14 07:27:22;;;;;;;17.25;10.52;;;;;;;14.19;51.57;102126.25;5049012;28;20070;-67
2022/03/14 07:29:49;;;;;;;15.48;10.55;;;;;;;14.19;51.67;102132.50;5053560;28;20069;-67
2022/03/14 07:32:15;;;;;;;14.73;10.85;;;;;;;14.20;51.71;102130.69;5054457;28;20037;-67
2022/03/14 07:34:42;;;;;;;23.45;10.77;;;;;;;14.21;51.67;102124.31;5053971;28;20070;-67
2022/03/14 07:37:08;;;;;;;12.52;10.48;;;;;;;14.22;51.89;102136.84;5053839;28;20453;-67
2022/03/14 07:39:35;;;;;;;15.27;10.68;;;;;;;14.23;51.81;102136.75;5054229;28;20449;-66
2022/03/14 07:42:02;;;;;;;16.30;11.35;;;;;;;14.24;51.73;102138.50;5048651;28;20402;-67
2022/03/14 07:44:53;;;;;;;12.13;10.50;;;;;;;14.28;51.97;102137.31;5054198;28;20047;-68
2022/03/14 07:47:20;;;;;;;13.18;10.07;;;;;;;14.34;52.08;102143.28;5053584;28;20074;-68
2022/03/14 07:49:46;;;;;;;15.65;10.88;;;;;;;14.36;51.80;102146.75;5054026;28;20458;-68
2022/03/14 07:52:13;;;;;;;12.80;9.48;;;;;;;14.37;51.74;102153.88;5053771;28;20033;-68
2022/03/14 07:54:41;;;;;;;16.25;10.52;;;;;;;14.39;51.83;102158.22;5053413;28;20463;-68
2022/03/14 07:57:08;;;;;;;17.50;11.35;;;;;;;14.43;51.99;102159.78;5035896;28;20110;-68
2022/03/14 07:59:35;;;;;;;17.98;11.80;;;;;;;14.46;51.92;102166.81;5053374;28;20037;-67
2022/03/14 08:02:01;;;;;;;16.13;11.32;;;;;;;14.48;51.82;102181.97;5053244;28;20037;-68
2022/03/14 08:04:33;;;;;;;12.88;10.60;;;;;;;14.50;51.75;102184.56;5054313;28;20041;-68
2022/03/14 08:07:00;;;;;;;15.70;10.65;;;;;;;14.52;51.89;102188.03;5053878;28;20086;-68
2022/03/14 08:09:27;;;;;;;14.05;10.55;;;;;;;14.53;51.86;102189.78;5053637;28;20049;-68
2022/03/14 08:11:53;;;;;;;16.20;11.43;;;;;;;14.55;51.73;102188.69;5053753;28;20040;-68
2022/03/14 08:14:20;;;;;;;15.10;10.88;;;;;;;14.56;51.63;102195.84;5053791;28;20167;-67
2022/03/14 08:16:46;;;;;;;15.45;11.23;;;;;;;14.56;51.92;102197.69;5053916;28;20084;-68
2022/03/14 08:19:13;;;;;;;14.82;10.68;;;;;;;14.56;51.84;102201.25;5053838;28;20094;-68
2022/03/14 08:21:40;;;;;;;19.05;11.90;;;;;;;14.58;51.75;102201.16;5053607;28;20052;-69
2022/03/14 08:24:08;;;;;;;18.60;11.93;;;;;;;14.59;51.68;102209.16;5053959;28;20550;-68
2022/03/14 08:26:35;;;;;;;20.30;14.13;;;;;;;14.60;51.90;102212.72;5053521;28;20098;-68
2022/03/14 08:29:02;;;;;;;17.15;12.73;;;;;;;14.63;51.83;102212.53;5053282;28;20238;-69
2022/03/14 08:31:30;;;;;;;17.48;13.68;;;;;;;14.64;51.74;102225.06;5053421;28;20506;-68
2022/03/14 08:34:01;;;;;;;19.90;13.05;;;;;;;14.67;51.85;102216.75;5053893;28;20092;-70
2022/03/14 08:36:28;;;;;;;18.35;13.65;;;;;;;14.69;51.53;102219.38;5053444;28;20051;-70
2022/03/14 08:38:55;;;;;;;18.63;12.68;;;;;;;14.67;51.44;102229.41;5053247;28;20074;-71
2022/03/14 08:41:22;;;;;;;16.75;12.80;;;;;;;14.68;51.48;102234.72;5053696;28;20459;-70
2022/03/14 08:43:51;;;;;;;17.73;13.52;;;;;;;14.70;51.46;102240.91;5053653;28;20045;-69
2022/03/14 08:46:18;;;;;;;18.95;13.68;;;;;;;14.71;51.45;102239.06;5034767;28;20132;-70
2022/03/14 08:48:45;;;;;;;19.98;13.02;;;;;;;14.72;51.75;102252.47;5034922;28;20055;-70
2022/03/14 08:51:11;;;;;;;15.68;12.35;;;;;;;14.72;51.59;102252.47;5052335;28;20049;-70
2022/03/14 08:53:44;;;;;;;20.30;13.68;;;;;;;14.73;51.52;102259.63;5052656;28;20124;-71
2022/03/14 08:56:11;;;;;;;17.13;12.93;;;;;;;14.75;51.59;102273.03;5052764;28;20041;-70
2022/03/14 08:58:38;;;;;;;18.42;13.18;;;;;;;14.77;51.51;102266.56;5052317;28;20438;-70
2022/03/14 09:01:05;;;;;;;19.70;13.45;;;;;;;14.82;51.77;102279.78;5052248;28;20041;-70
2022/03/14 09:03:33;;;;;;;19.27;12.07;;;;;;;14.84;51.43;102284.13;5052645;28;20075;-71
2022/03/14 09:06:01;;;;;;;16.55;12.80;;;;;;;14.84;51.63;102286.81;5052155;28;20426;-68
2022/03/14 09:08:27;;;;;;;20.90;12.55;;;;;;;14.87;51.64;102291.19;5035067;28;20102;-70
2022/03/14 09:10:55;;;;;;;17.00;12.45;;;;;;;14.88;51.54;102295.63;5033890;28;20410;-68
2022/03/14 09:13:23;;;;;;;21.35;13.25;;;;;;;14.90;51.43;102297.25;5043096;28;20044;-70
2022/03/14 09:15:50;;;;;;;18.08;12.85;;;;;;;14.92;51.76;102299.88;5034606;28;20046;-71
2022/03/14 09:18:17;;;;;;;20.80;13.35;;;;;;;14.96;51.62;102296.00;5052535;28;20395;-71
2022/03/14 09:20:46;;;;;;;19.63;13.40;;;;;;;15.02;51.87;102297.41;5034920;28;20037;-71
2022/03/14 09:23:13;;;;;;;16.73;12.73;;;;;;;15.07;51.78;102298.84;5052575;28;20094;-71
2022/03/14 09:25:40;;;;;;;18.52;12.82;;;;;;;15.13;51.66;102306.56;5052527;28;20059;-71
2022/03/14 09:28:06;;;;;;;16.98;12.73;;;;;;;15.19;51.62;102307.97;5052448;28;20041;-70
2022/03/14 09:30:33;;;;;;;17.70;12.50;;;;;;;15.24;51.27;102314.81;5018347;28;20510;-71
2022/03/14 09:33:00;;;;;;;18.25;13.38;;;;;;;15.31;51.36;102319.81;5034553;28;20043;-72
2022/03/14 09:35:40;;;;;;;19.58;12.98;;;;;;;15.36;51.46;102323.94;5130771;27;20896;-69
2022/03/14 09:38:07;;;;;;;15.85;12.43;;;;;;;15.42;51.19;102317.25;5112253;28;20055;-69
2022/03/14 09:40:34;;;;;;;15.75;12.15;;;;;;;15.47;51.45;102315.97;5112705;28;20044;-69
2022/03/14 09:43:02;;;;;;;20.35;12.95;;;;;;;15.52;51.19;102326.47;5111950;28;20044;-69
2022/03/14 09:45:32;;;;;;;16.45;11.65;;;;;;;15.59;51.26;102335.94;5112082;28;20074;-69
2022/03/14 09:48:01;;;;;;;17.35;11.25;;;;;;;15.63;51.05;102333.94;5129218;28;20505;-68
2022/03/14 09:50:39;;;;;;;17.80;12.50;;;;;;;15.65;51.00;102334.69;5130341;28;20066;-69
2022/03/14 09:53:10;;;;;;;17.98;11.10;;;;;;;15.68;50.89;102348.03;5130737;28;20341;-69
2022/03/14 09:55:42;;;;;;;15.90;12.48;;;;;;;15.68;50.88;102351.59;5130313;28;20096;-71
2022/03/14 09:58:12;;;;;;;22.27;12.30;;;;;;;15.69;50.85;102356.03;5129722;28;20491;-72
2022/03/14 10:00:39;;;;;;;14.95;11.07;;;;;;;15.73;50.39;102362.13;5094405;28;20480;-74
2022/03/14 10:03:12;;;;;;;16.92;10.85;;;;;;;15.79;50.89;102367.97;5111770;28;20063;-73
2022/03/14 10:06:04;;;;;;;18.52;11.55;;;;;;;15.90;50.85;102372.66;5111636;28;20039;-74
2022/03/14 10:08:31;;;;;;;18.85;10.50;;;;;;;16.12;50.99;102372.03;5111467;28;20062;-73
2022/03/14 10:10:58;;;;;;;12.50;8.00;;;;;;;16.33;51.09;102377.78;5094792;28;20040;-73
2022/03/14 10:13:44;;;;;;;13.75;8.23;;;;;;;16.50;50.58;102378.34;5113317;28;20046;-73
2022/03/14 10:16:11;;;;;;;13.68;7.82;;;;;;;16.61;50.55;102380.28;5110981;28;20039;-73
2022/03/14 10:18:56;;;;;;;12.93;8.57;;;;;;;16.67;50.40;102384.41;5129139;28;20138;-73
2022/03/14 10:21:40;;;;;;;11.85;8.05;;;;;;;16.70;49.88;102386.91;5128844;28;20121;-73
2022/03/14 10:24:10;;;;;;;12.07;8.32;;;;;;;16.73;49.52;102384.84;5135827;27;20089;-73
2022/03/14 10:26:41;;;;;;;13.65;8.07;;;;;;;16.75;49.43;102387.44;5127158;28;20070;-73
2022/03/14 10:29:12;;;;;;;14.00;8.02;;;;;;;16.75;49.48;102380.16;5128713;28;20519;-72
2022/03/14 10:31:47;;;;;;;11.00;6.63;;;;;;;16.79;49.28;102381.69;5129586;28;20035;-73
2022/03/14 10:34:18;;;;;;;12.85;7.03;;;;;;;16.79;48.83;102395.25;5110503;28;20116;-71
2022/03/14 10:36:57;;;;;;;13.88;7.72;;;;;;;16.79;49.16;102386.25;5127868;28;20418;-68
2022/03/14 10:39:31;;;;;;;13.30;6.90;;;;;;;16.80;49.02;102396.13;5129395;28;20055;-68
2022/03/14 10:42:08;;;;;;;12.75;6.47;;;;;;;16.78;48.76;102404.38;5128886;28;20093;-68
2022/03/14 10:44:53;;;;;;;10.25;5.50;;;;;;;16.79;48.45;102405.22;5126534;28;20050;-68
2022/03/14 10:47:23;;;;;;;12.55;6.30;;;;;;;16.86;48.71;102401.09;5113860;28;20143;-68
2022/03/14 10:49:50;;;;;;;10.93;5.82;;;;;;;16.99;48.73;102407.34;5096252;28;20067;-70
2022/03/14 10:52:18;;;;;;;13.93;5.93;;;;;;;17.12;48.60;102410.94;5114749;28;20063;-75
2022/03/14 10:54:47;;;;;;;9.45;5.75;;;;;;;17.28;48.34;102407.06;5096863;28;20040;-68
2022/03/14 10:57:24;;;;;;;8.40;6.10;;;;;;;17.40;48.10;102407.03;5114871;28;20078;-69
2022/03/14 10:59:53;;;;;;;12.23;6.80;;;;;;;17.51;48.20;102418.94;5114955;28;20044;-69
2022/03/14 11:02:24;;;;;;;9.50;6.03;;;;;;;17.57;47.59;102411.19;5114938;28;20047;-70
2022/03/14 11:04:56;;;;;;;9.75;6.03;;;;;;;17.61;47.46;102412.69;5114470;28;20040;-70
2022/03/14 11:07:28;;;;;;;18.70;6.93;;;;;;;17.70;47.77;102419.31;5115134;28;20097;-68
2022/03/14 11:10:00;;;;;;;8.07;5.85;;;;;;;17.78;47.38;102411.44;5114557;28;20110;-67
2022/03/14 11:12:29;;;;;;;13.85;6.65;;;;;;;17.85;47.30;102409.13;5114636;28;20120;-67
2022/03/14 11:15:07;;;;;;;11.88;5.70;;;;;;;17.91;47.10;102420.41;5114489;28;20044;-67
2022/03/14 11:17:35;;;;;;;8.27;5.85;;;;;;;17.96;46.54;102420.03;5113915;28;20050;-67
2022/03/14 11:20:22;;;;;;;8.27;5.15;;;;;;;17.97;46.37;102422.66;5094178;28;20058;-67
2022/03/14 11:22:50;;;;;;;11.07;5.15;;;;;;;18.05;46.44;102413.91;5094176;28;20056;-71
2022/03/14 11:25:22;;;;;;;7.40;5.15;;;;;;;18.21;46.51;102408.13;5094117;28;20044;-68
2022/03/14 11:27:51;;;;;;;12.40;6.53;;;;;;;18.36;46.52;102415.94;5093311;28;20056;-68
2022/03/14 11:30:19;;;;;;;8.35;5.55;;;;;;;18.51;46.29;102418.44;5094153;28;20040;-68
2022/03/14 11:32:46;;;;;;;8.40;5.07;;;;;;;18.67;45.93;102417.13;5106400;28;20521;-68